Latest Weather Forecast - Sunday 24th January 2021 (6 am)

Forecast Period: 

 6 am 24th January 2021 to 12 Noon 24th January 2021 

Synopsis:

 A low level trough will be affecting the islands

Forecast:

Fair to occasionally cloudy with a few brief isolated showers

Weather   Advisory/Warning:

 None

Winds:

 ENE-E at 15 – 25 km/h (9 – 16 mph)     

Sea Conditions:

Slight to moderate in open water; east north-easterly swells (1.0 – 2.0 m) 

Marine Advisory/Warning:

None

Upcoming Tides:
 High: **** 3:08 pm
 Low:

11:07 am

6:18 pm

Aviation WX

[Source: ADDS]
METAR
TVSA 280000Z 07017KT 9999 -SHRA SCT018 25/21 Q1014 =
TVSA 272300Z 2800/2824 07014KT 9999 SCT018
TAF
TVSA 272300Z 2800/2824 07014KT 9999 SCT018 =
SR / SS: 10:20 / 22:13 UTC (Sunrise Sunset 2021-02-28)